createdAt,value
2022-10-16T00:01:14.050Z,13.63
2022-10-16T00:04:01.031Z,13.61
2022-10-16T00:06:47.706Z,13.66
2022-10-16T00:09:32.754Z,13.67
2022-10-16T00:12:18.160Z,13.68
2022-10-16T00:15:03.171Z,13.72
2022-10-16T00:17:48.544Z,13.73
2022-10-16T00:20:37.148Z,13.78
2022-10-16T00:23:22.986Z,13.72
2022-10-16T00:26:11.711Z,13.67
2022-10-16T00:28:57.229Z,13.60
2022-10-16T00:31:42.279Z,13.65
2022-10-16T00:34:27.242Z,13.70
2022-10-16T00:37:12.829Z,13.68
2022-10-16T00:39:57.986Z,13.65
2022-10-16T00:42:42.958Z,13.61
2022-10-16T00:45:28.172Z,13.56
2022-10-16T00:48:14.167Z,13.52
2022-10-16T00:50:59.830Z,13.48
2022-10-16T00:53:45.767Z,13.43
2022-10-16T00:56:31.048Z,13.45
2022-10-16T00:59:22.077Z,13.43
2022-10-16T01:02:09.497Z,13.33
2022-10-16T01:04:55.307Z,13.33
2022-10-16T01:07:53.928Z,13.28
2022-10-16T01:10:46.361Z,13.29
2022-10-16T01:13:37.417Z,13.30
2022-10-16T01:16:38.541Z,13.33
2022-10-16T01:19:26.714Z,13.35
2022-10-16T01:22:11.954Z,13.37
2022-10-16T01:25:02.142Z,13.36
2022-10-16T01:27:49.496Z,13.30
2022-10-16T01:30:36.633Z,13.24
2022-10-16T01:33:28.233Z,13.20
2022-10-16T01:36:18.121Z,13.14
2022-10-16T01:39:04.070Z,13.15
2022-10-16T01:42:02.191Z,13.19
2022-10-16T01:44:49.472Z,13.12
2022-10-16T01:47:37.598Z,13.18
2022-10-16T01:50:23.656Z,13.19
2022-10-16T01:53:12.465Z,13.17
2022-10-16T01:56:00.185Z,13.23
2022-10-16T01:58:56.393Z,13.21
2022-10-16T02:01:46.081Z,13.19
2022-10-16T02:04:46.202Z,13.12
2022-10-16T02:07:31.180Z,12.97
2022-10-16T02:10:16.846Z,12.92
2022-10-16T02:13:26.353Z,12.88
2022-10-16T02:16:12.866Z,12.81
2022-10-16T02:18:57.641Z,12.75
2022-10-16T02:21:59.062Z,12.75
2022-10-16T02:25:03.469Z,12.73
2022-10-16T02:28:01.768Z,12.83
2022-10-16T02:30:59.250Z,12.83
2022-10-16T02:33:47.128Z,12.88
2022-10-16T02:36:34.618Z,12.90
2022-10-16T02:39:21.243Z,12.90
2022-10-16T02:42:11.287Z,12.89
2022-10-16T02:44:56.543Z,12.92
2022-10-16T02:47:41.513Z,12.98
2022-10-16T02:50:26.232Z,13.01
2022-10-16T02:53:11.170Z,13.02
2022-10-16T02:55:56.104Z,13.03
2022-10-16T02:58:41.052Z,13.04
2022-10-16T03:01:26.160Z,13.02
2022-10-16T03:04:11.282Z,13.07
2022-10-16T03:06:57.685Z,13.00
2022-10-16T03:09:42.463Z,13.02
2022-10-16T03:12:29.431Z,13.01
2022-10-16T03:15:14.320Z,13.01
2022-10-16T03:18:00.350Z,13.02
2022-10-16T03:20:45.677Z,12.93
2022-10-16T03:26:15.734Z,12.90
2022-10-16T03:29:00.593Z,12.85
2022-10-16T03:31:45.980Z,12.85
2022-10-16T03:34:31.121Z,12.81
2022-10-16T03:37:16.028Z,12.86
2022-10-16T03:40:01.719Z,12.86
2022-10-16T03:42:46.799Z,12.84
2022-10-16T03:45:31.731Z,12.86
2022-10-16T03:48:16.521Z,12.91
2022-10-16T03:51:01.499Z,12.88
2022-10-16T03:53:46.392Z,12.89
2022-10-16T03:56:31.832Z,12.92
2022-10-16T03:59:16.805Z,12.92
2022-10-16T04:02:01.664Z,12.96
2022-10-16T04:04:46.709Z,12.99
2022-10-16T04:07:31.699Z,12.98
2022-10-16T04:10:16.884Z,13.05
2022-10-16T04:13:01.913Z,13.08
2022-10-16T04:15:46.814Z,13.10
2022-10-16T04:18:32.046Z,13.12
2022-10-16T04:21:17.150Z,13.18
2022-10-16T04:24:02.031Z,13.18
2022-10-16T04:26:47.033Z,13.16
2022-10-16T04:29:32.310Z,13.16
2022-10-16T04:32:17.234Z,13.19
2022-10-16T04:35:02.122Z,13.18
2022-10-16T04:37:47.561Z,13.23
2022-10-16T04:40:33.110Z,13.21
2022-10-16T04:43:18.376Z,13.24
2022-10-16T04:46:03.736Z,13.25
2022-10-16T04:48:49.135Z,13.25
2022-10-16T04:51:34.341Z,13.26
2022-10-16T04:54:19.242Z,13.24
2022-10-16T04:57:04.301Z,13.26
2022-10-16T04:59:49.659Z,13.25
2022-10-16T05:02:35.283Z,13.23
2022-10-16T05:05:20.498Z,13.20
2022-10-16T05:08:05.373Z,13.17
2022-10-16T05:10:50.132Z,13.17
2022-10-16T05:13:35.655Z,13.15
2022-10-16T05:16:21.096Z,13.13
2022-10-16T05:22:11.388Z,13.06
2022-10-16T05:24:56.387Z,13.02
2022-10-16T05:27:41.408Z,13.04
2022-10-16T05:30:26.422Z,13.01
2022-10-16T05:33:11.402Z,13.00
2022-10-16T05:35:56.199Z,12.95
2022-10-16T05:38:41.067Z,12.98
2022-10-16T05:41:26.045Z,12.97
2022-10-16T05:44:11.212Z,12.94
2022-10-16T05:46:56.050Z,12.92
2022-10-16T05:49:41.566Z,12.90
2022-10-16T05:52:28.021Z,12.83
2022-10-16T05:55:13.061Z,12.87
2022-10-16T05:57:58.029Z,12.87
2022-10-16T06:00:43.556Z,12.89
2022-10-16T06:03:28.723Z,12.86
2022-10-16T06:06:16.352Z,12.84
2022-10-16T06:09:01.657Z,12.83
2022-10-16T06:11:46.560Z,12.81
2022-10-16T06:14:31.465Z,12.81
2022-10-16T06:17:17.581Z,12.84
2022-10-16T06:20:03.151Z,12.88
2022-10-16T06:22:48.461Z,12.89
2022-10-16T06:25:33.856Z,12.88
2022-10-16T06:28:19.227Z,12.94
2022-10-16T06:31:08.297Z,12.97
2022-10-16T06:33:55.709Z,12.97
2022-10-16T06:36:41.470Z,13.02
2022-10-16T06:39:26.502Z,12.99
2022-10-16T06:42:11.563Z,13.03
2022-10-16T06:44:57.140Z,13.07
2022-10-16T06:47:42.454Z,13.06
2022-10-16T06:50:27.588Z,13.07
2022-10-16T06:53:12.782Z,13.13
2022-10-16T06:56:00.572Z,13.13
2022-10-16T06:58:46.406Z,13.15
2022-10-16T07:01:33.077Z,13.23
2022-10-16T07:04:18.391Z,13.30
2022-10-16T07:07:06.901Z,13.34
2022-10-16T07:09:55.054Z,13.36
2022-10-16T07:12:40.049Z,13.38
2022-10-16T07:15:26.638Z,13.47
2022-10-16T07:18:11.768Z,13.54
2022-10-16T07:21:04.471Z,13.56
2022-10-16T07:23:54.080Z,13.59
2022-10-16T07:26:39.709Z,13.66
2022-10-16T07:29:24.833Z,13.68
2022-10-16T07:32:09.886Z,13.75
2022-10-16T07:34:55.312Z,13.88
2022-10-16T07:37:40.180Z,13.98
2022-10-16T07:40:25.131Z,14.02
2022-10-16T07:43:10.551Z,14.06
2022-10-16T07:45:57.526Z,14.05
2022-10-16T07:48:45.400Z,14.03
2022-10-16T07:51:30.967Z,14.08
2022-10-16T07:54:16.082Z,14.02
2022-10-16T07:57:00.886Z,14.06
2022-10-16T07:59:48.982Z,14.00
2022-10-16T08:02:33.843Z,13.94
2022-10-16T08:05:18.912Z,14.04
2022-10-16T08:08:04.177Z,14.06
2022-10-16T08:10:51.354Z,14.21
2022-10-16T08:13:36.598Z,14.31
2022-10-16T08:16:22.033Z,14.35
2022-10-16T08:19:07.087Z,14.50
2022-10-16T08:21:54.126Z,14.62
2022-10-16T08:24:39.183Z,14.75
2022-10-16T08:27:25.126Z,14.84
2022-10-16T08:30:11.157Z,14.95
2022-10-16T08:32:56.238Z,15.06
2022-10-16T08:35:41.158Z,15.11
2022-10-16T08:38:26.475Z,15.20
2022-10-16T08:41:37.428Z,15.31
2022-10-16T08:44:22.359Z,15.39
2022-10-16T08:47:18.432Z,15.51
2022-10-16T08:50:11.498Z,15.53
2022-10-16T08:52:57.947Z,15.59
2022-10-16T08:55:50.834Z,15.59
2022-10-16T08:58:36.162Z,15.85
2022-10-16T09:01:24.946Z,15.88
2022-10-16T09:04:43.044Z,16.10
2022-10-16T09:07:31.221Z,16.05
2022-10-16T09:10:35.152Z,15.91
2022-10-16T09:13:49.748Z,16.18
2022-10-16T09:16:40.473Z,16.20
2022-10-16T09:19:32.425Z,16.17
2022-10-16T09:22:19.154Z,16.23
2022-10-16T09:25:13.738Z,16.21
2022-10-16T09:27:59.160Z,16.24
2022-10-16T09:30:44.557Z,16.36
2022-10-16T09:33:35.855Z,16.35
2022-10-16T09:36:22.135Z,16.44
2022-10-16T09:39:09.794Z,16.42
2022-10-16T09:41:56.836Z,16.54
2022-10-16T09:44:42.709Z,16.73
2022-10-16T09:47:30.368Z,16.70
2022-10-16T09:50:29.345Z,16.70
2022-10-16T09:53:16.104Z,16.74
2022-10-16T09:56:01.048Z,16.60
2022-10-16T09:58:51.594Z,16.78
2022-10-16T10:01:39.879Z,16.82
2022-10-16T10:04:26.171Z,16.89
2022-10-16T10:07:25.862Z,16.92
2022-10-16T10:10:29.221Z,17.17
2022-10-16T10:13:23.487Z,17.28
2022-10-16T10:16:11.164Z,17.39
2022-10-16T10:19:00.623Z,17.34
2022-10-16T10:21:46.987Z,17.43
2022-10-16T10:24:32.012Z,17.42
2022-10-16T10:27:19.605Z,17.43
2022-10-16T10:30:19.071Z,17.50
2022-10-16T10:33:13.359Z,17.36
2022-10-16T10:36:01.727Z,17.50
2022-10-16T10:38:52.104Z,17.29
2022-10-16T10:41:58.834Z,17.25
2022-10-16T10:45:18.294Z,17.01
2022-10-16T10:48:30.471Z,17.00
2022-10-16T10:51:24.649Z,17.11
2022-10-16T10:54:36.088Z,17.23
2022-10-16T10:57:44.002Z,17.34
2022-10-16T11:00:42.505Z,17.64
2022-10-16T11:03:46.441Z,17.84
2022-10-16T11:06:41.267Z,18.06
2022-10-16T11:09:37.709Z,18.06
2022-10-16T11:12:25.649Z,18.08
2022-10-16T11:15:20.127Z,18.78
2022-10-16T11:18:18.455Z,18.06
2022-10-16T11:21:12.328Z,17.96
2022-10-16T11:23:57.415Z,17.80
2022-10-16T11:26:45.855Z,17.81
2022-10-16T11:29:33.088Z,17.73
2022-10-16T11:32:24.944Z,17.77
2022-10-16T11:35:20.802Z,17.89
2022-10-16T11:38:37.754Z,17.77
2022-10-16T11:41:48.047Z,17.95
2022-10-16T11:45:00.489Z,18.02
2022-10-16T11:47:59.304Z,17.92
2022-10-16T11:50:54.865Z,17.84
2022-10-16T11:53:51.553Z,18.06
2022-10-16T11:56:42.073Z,18.15
2022-10-16T11:59:34.533Z,18.07
2022-10-16T12:02:55.838Z,17.98
2022-10-16T12:06:07.587Z,18.07
2022-10-16T12:08:54.521Z,18.27
2022-10-16T12:11:39.812Z,18.41
2022-10-16T12:14:36.943Z,18.38
2022-10-16T12:17:37.655Z,18.56
2022-10-16T12:20:31.578Z,19.04
2022-10-16T12:23:22.230Z,18.91
2022-10-16T12:26:07.354Z,18.98
2022-10-16T12:28:52.809Z,19.06
2022-10-16T12:31:49.749Z,18.88
2022-10-16T12:34:44.338Z,18.47
2022-10-16T12:37:35.854Z,18.59
2022-10-16T12:40:30.882Z,18.51
2022-10-16T12:43:26.075Z,19.10
2022-10-16T12:46:14.186Z,20.18
2022-10-16T12:49:14.401Z,19.83
2022-10-16T12:51:59.497Z,19.91
2022-10-16T12:54:44.884Z,20.24
2022-10-16T12:57:54.434Z,20.53
2022-10-16T13:00:51.692Z,21.32
2022-10-16T13:04:19.970Z,21.07
2022-10-16T13:07:23.246Z,20.17
2022-10-16T13:10:24.242Z,21.23
2022-10-16T13:13:08.937Z,22.26
2022-10-16T13:16:23.365Z,22.09
2022-10-16T13:19:14.283Z,22.74
2022-10-16T13:22:30.821Z,22.43
2022-10-16T13:25:38.905Z,21.65
2022-10-16T13:28:30.691Z,21.16
2022-10-16T13:31:22.662Z,20.57
2022-10-16T13:34:14.959Z,19.25
2022-10-16T13:37:00.465Z,18.58
2022-10-16T13:39:45.569Z,18.96
2022-10-16T13:42:30.697Z,19.10
2022-10-16T13:45:22.302Z,18.95
2022-10-16T13:48:11.426Z,19.33
2022-10-16T13:51:32.517Z,19.49
2022-10-16T13:54:17.458Z,19.66
2022-10-16T13:57:22.583Z,19.01
2022-10-16T14:00:22.845Z,19.25
2022-10-16T14:03:16.027Z,19.47
2022-10-16T14:06:03.624Z,19.37
2022-10-16T14:09:00.730Z,19.20
2022-10-16T14:11:49.971Z,19.37
2022-10-16T14:14:46.957Z,19.61
2022-10-16T14:17:35.945Z,19.46
2022-10-16T14:20:27.117Z,19.43
2022-10-16T14:23:44.605Z,19.74
2022-10-16T14:26:29.806Z,20.02
2022-10-16T14:29:18.801Z,19.93
2022-10-16T14:32:25.749Z,19.45
2022-10-16T14:35:31.567Z,19.16
2022-10-16T14:38:20.881Z,19.06
2022-10-16T14:41:07.075Z,19.21
2022-10-16T14:43:57.964Z,19.02
2022-10-16T14:46:44.682Z,19.41
2022-10-16T14:49:30.291Z,19.79
2022-10-16T14:52:15.450Z,19.97
2022-10-16T14:55:00.508Z,19.95
2022-10-16T14:57:46.680Z,19.64
2022-10-16T15:00:32.152Z,19.85
2022-10-16T15:03:17.293Z,19.90
2022-10-16T15:06:02.856Z,19.30
2022-10-16T15:08:48.160Z,19.03
2022-10-16T15:11:34.086Z,19.34
2022-10-16T15:14:19.142Z,19.73
2022-10-16T15:17:04.218Z,20.13
2022-10-16T15:19:49.761Z,20.64
2022-10-16T15:22:35.135Z,21.34
2022-10-16T15:25:43.205Z,21.27
2022-10-16T15:28:30.512Z,20.56
2022-10-16T15:31:20.092Z,20.01
2022-10-16T15:34:06.153Z,19.76
2022-10-16T15:36:51.309Z,19.76
2022-10-16T15:39:41.240Z,19.27
2022-10-16T15:42:26.927Z,19.32
2022-10-16T15:45:13.686Z,19.47
2022-10-16T15:47:58.969Z,19.35
2022-10-16T15:53:29.369Z,18.75
2022-10-16T15:56:15.601Z,18.45
2022-10-16T15:59:01.454Z,18.45
2022-10-16T16:01:47.079Z,18.31
2022-10-16T16:04:43.545Z,17.71
2022-10-16T16:07:29.621Z,17.87
2022-10-16T16:10:15.696Z,17.77
2022-10-16T16:13:00.990Z,17.66
2022-10-16T16:15:46.312Z,17.58
2022-10-16T16:18:31.370Z,17.59
2022-10-16T16:21:16.791Z,17.53
2022-10-16T16:24:02.334Z,17.71
2022-10-16T16:26:47.450Z,17.58
2022-10-16T16:29:32.704Z,17.41
2022-10-16T16:32:17.637Z,17.30
2022-10-16T16:35:03.996Z,17.29
2022-10-16T16:37:49.460Z,17.33
2022-10-16T16:40:34.556Z,17.21
2022-10-16T16:43:23.131Z,16.66
2022-10-16T16:46:08.651Z,16.59
2022-10-16T16:48:53.796Z,16.78
2022-10-16T16:51:40.647Z,16.86
2022-10-16T16:54:26.358Z,16.79
2022-10-16T16:57:11.665Z,16.73
2022-10-16T16:59:56.683Z,16.92
2022-10-16T17:02:41.963Z,17.06
2022-10-16T17:05:27.451Z,16.93
2022-10-16T17:08:12.510Z,16.84
2022-10-16T17:10:58.469Z,16.74
2022-10-16T17:13:44.095Z,16.68
2022-10-16T17:16:35.041Z,16.57
2022-10-16T17:19:20.820Z,16.70
2022-10-16T17:22:06.047Z,16.74
2022-10-16T17:24:51.612Z,16.49
2022-10-16T17:27:36.807Z,16.21
2022-10-16T17:30:24.810Z,16.18
2022-10-16T17:33:11.391Z,16.24
2022-10-16T17:36:00.067Z,16.57
2022-10-16T17:38:46.196Z,16.52
2022-10-16T17:41:33.168Z,16.40
2022-10-16T17:44:18.675Z,15.97
2022-10-16T17:47:03.768Z,16.13
2022-10-16T17:49:48.878Z,16.41
2022-10-16T17:52:34.082Z,16.43
2022-10-16T17:55:26.354Z,16.37
2022-10-16T17:58:12.365Z,16.31
2022-10-16T18:00:57.489Z,16.17
2022-10-16T18:03:42.641Z,16.08
2022-10-16T18:06:28.755Z,15.87
2022-10-16T18:09:16.204Z,15.75
2022-10-16T18:12:01.574Z,15.96
2022-10-16T18:14:46.826Z,16.10
2022-10-16T18:17:32.152Z,15.97
2022-10-16T18:20:17.782Z,16.28
2022-10-16T18:23:03.080Z,16.14
2022-10-16T18:25:51.730Z,15.96
2022-10-16T18:28:37.133Z,15.85
2022-10-16T18:31:23.374Z,15.78
2022-10-16T18:34:08.511Z,15.63
2022-10-16T18:36:55.081Z,15.62
2022-10-16T18:39:40.669Z,15.78
2022-10-16T18:42:26.258Z,15.79
2022-10-16T18:45:11.526Z,15.74
2022-10-16T18:47:56.799Z,15.69
2022-10-16T18:50:42.239Z,15.62
2022-10-16T18:56:19.560Z,15.51
2022-10-16T18:59:06.901Z,15.42
2022-10-16T19:01:52.269Z,15.56
2022-10-16T19:04:37.914Z,15.64
2022-10-16T19:07:22.981Z,15.63
2022-10-16T19:10:08.463Z,15.72
2022-10-16T19:12:53.800Z,15.80
2022-10-16T19:15:44.464Z,15.79
2022-10-16T19:18:32.178Z,15.83
2022-10-16T19:21:17.830Z,15.90
2022-10-16T19:24:04.128Z,15.94
2022-10-16T19:26:49.308Z,16.02
2022-10-16T19:29:34.636Z,15.99
2022-10-16T19:32:19.558Z,15.95
2022-10-16T19:35:05.257Z,15.96
2022-10-16T19:37:50.670Z,15.97
2022-10-16T19:40:35.542Z,15.99
2022-10-16T19:43:20.443Z,16.13
2022-10-16T19:46:07.785Z,16.08
2022-10-16T19:49:06.074Z,16.10
2022-10-16T19:51:51.574Z,16.17
2022-10-16T19:54:37.847Z,16.12
2022-10-16T19:57:27.377Z,16.16
2022-10-16T20:00:13.083Z,16.06
2022-10-16T20:02:58.122Z,16.04
2022-10-16T20:05:56.649Z,16.04
2022-10-16T20:08:43.256Z,16.03
2022-10-16T20:11:31.544Z,15.87
2022-10-16T20:14:16.722Z,15.89
2022-10-16T20:17:01.690Z,15.88
2022-10-16T20:19:47.368Z,15.72
2022-10-16T20:22:32.631Z,15.68
2022-10-16T20:25:19.147Z,15.74
2022-10-16T20:28:06.041Z,15.66
2022-10-16T20:30:51.328Z,15.55
2022-10-16T20:33:36.896Z,15.45
2022-10-16T20:36:24.609Z,15.38
2022-10-16T20:39:10.865Z,15.41
2022-10-16T20:41:55.835Z,15.32
2022-10-16T20:44:40.649Z,15.20
2022-10-16T20:47:26.509Z,15.09
2022-10-16T20:50:12.086Z,14.99
2022-10-16T20:52:58.211Z,14.96
2022-10-16T20:55:43.569Z,15.22
2022-10-16T20:58:28.401Z,15.17
2022-10-16T21:01:22.136Z,15.23
2022-10-16T21:04:08.852Z,15.07
2022-10-16T21:06:53.942Z,15.03
2022-10-16T21:09:38.822Z,15.06
2022-10-16T21:12:25.219Z,15.17
2022-10-16T21:15:15.394Z,15.27
2022-10-16T21:18:00.549Z,15.10
2022-10-16T21:20:45.961Z,15.17
2022-10-16T21:23:32.047Z,15.22
2022-10-16T21:26:18.625Z,14.94
2022-10-16T21:29:06.808Z,14.90
2022-10-16T21:31:52.327Z,14.99
2022-10-16T21:34:37.617Z,14.95
2022-10-16T21:37:22.761Z,14.91
2022-10-16T21:40:08.778Z,15.13
2022-10-16T21:42:54.029Z,15.07
2022-10-16T21:45:39.448Z,15.06
2022-10-16T21:48:24.270Z,15.09
2022-10-16T21:51:11.480Z,15.19
2022-10-16T21:53:56.960Z,15.13
2022-10-16T21:56:42.195Z,15.13
2022-10-16T21:59:27.616Z,15.15
2022-10-16T22:02:12.546Z,15.15
2022-10-16T22:04:57.686Z,15.20
2022-10-16T22:07:42.888Z,15.13
2022-10-16T22:10:27.734Z,15.02
2022-10-16T22:13:12.697Z,15.05
2022-10-16T22:15:57.639Z,15.10
2022-10-16T22:18:42.922Z,15.05
2022-10-16T22:21:29.255Z,15.07
2022-10-16T22:24:17.918Z,15.11
2022-10-16T22:27:02.889Z,15.08
2022-10-16T22:29:51.609Z,14.91
2022-10-16T22:32:36.930Z,14.92
2022-10-16T22:35:21.694Z,14.91
2022-10-16T22:38:06.875Z,15.04
2022-10-16T22:40:52.090Z,14.94
2022-10-16T22:43:39.285Z,14.87
2022-10-16T22:46:30.240Z,14.91
2022-10-16T22:49:15.547Z,14.89
2022-10-16T22:52:00.593Z,15.00
2022-10-16T22:54:46.090Z,14.92
2022-10-16T22:57:31.278Z,14.89
2022-10-16T23:00:19.610Z,14.79
2022-10-16T23:03:04.876Z,14.78
2022-10-16T23:05:50.528Z,14.74
2022-10-16T23:08:35.853Z,14.80
2022-10-16T23:11:21.405Z,14.80
2022-10-16T23:14:06.521Z,14.74
2022-10-16T23:16:51.823Z,14.71
2022-10-16T23:19:36.770Z,14.72
2022-10-16T23:22:21.921Z,14.68
2022-10-16T23:25:07.087Z,14.61
2022-10-16T23:27:55.615Z,14.54
2022-10-16T23:30:40.819Z,14.46
2022-10-16T23:33:25.913Z,14.42
2022-10-16T23:36:14.254Z,14.47
2022-10-16T23:38:59.704Z,14.51
2022-10-16T23:41:44.629Z,14.50
2022-10-16T23:44:29.896Z,14.48
2022-10-16T23:47:14.924Z,14.47
2022-10-16T23:50:00.294Z,14.44
2022-10-16T23:52:45.199Z,14.53
2022-10-16T23:55:30.229Z,14.53
2022-10-16T23:58:15.903Z,14.51
